Time;durP1;ratioP1;P1;durP2;ratioP2;P2;SDS_P1;SDS_P2;PMS_P1;PMS_P2;Temp;Humidity;BMP_temperature;BMP_pressure;BME280_temperature;BME280_humidity;BME280_pressure;Samples;Min_cycle;Max_cycle;Signal;HPM_P1;HPM_P2
2021/01/13 00:01:46;;;;;;;5.63;1.30;;;3.00;1.00;;;;;;5074413;28;20197;-59
2021/01/13 00:04:12;;;;;;;3.30;0.80;;;3.00;1.00;;;;;;5073940;28;20236;-59
2021/01/13 00:06:37;;;;;;;9.77;1.47;;;2.90;1.00;;;;;;5074523;28;20173;-59
2021/01/13 00:09:04;;;;;;;5.87;1.30;;;2.90;1.00;;;;;;5074186;28;20765;-59
2021/01/13 00:11:30;;;;;;;3.67;0.85;;;2.80;1.00;;;;;;5073718;28;20185;-59
2021/01/13 00:13:55;;;;;;;1.50;1.13;;;2.70;1.00;;;;;;5074138;28;20173;-59
2021/01/13 00:16:21;;;;;;;4.17;1.87;;;2.80;1.00;;;;;;5073685;28;20422;-59
2021/01/13 00:18:48;;;;;;;8.93;1.13;;;2.80;1.00;;;;;;5072762;28;20180;-59
2021/01/13 00:21:17;;;;;;;0.98;0.60;;;2.80;1.00;;;;;;5073483;28;20679;-59
2021/01/13 00:23:45;;;;;;;11.85;1.05;;;2.80;1.00;;;;;;5073341;28;20208;-59
2021/01/13 00:26:18;;;;;;;1.48;0.80;;;2.80;1.00;;;;;;5073745;28;20268;-59
2021/01/13 00:28:44;;;;;;;0.98;0.77;;;2.80;1.00;;;;;;5073640;28;20176;-59
2021/01/13 00:31:11;;;;;;;5.13;0.93;;;2.80;1.00;;;;;;5073802;28;20509;-59
2021/01/13 00:33:37;;;;;;;3.35;2.10;;;2.80;1.00;;;;;;5073348;28;20169;-59
2021/01/13 00:36:03;;;;;;;2.70;0.83;;;2.70;1.00;;;;;;5073589;28;20188;-59
2021/01/13 00:38:28;;;;;;;1.80;1.13;;;2.70;1.00;;;;;;5073619;28;20600;-59
2021/01/13 00:40:54;;;;;;;2.47;1.23;;;2.80;1.00;;;;;;5073440;28;20521;-59
2021/01/13 00:43:19;;;;;;;4.50;1.13;;;2.90;1.00;;;;;;5073245;28;20242;-59
2021/01/13 00:45:45;;;;;;;7.67;0.97;;;2.80;1.00;;;;;;5073610;28;20295;-59
2021/01/13 00:48:10;;;;;;;3.80;1.57;;;2.80;1.00;;;;;;5073464;28;20183;-59
2021/01/13 00:50:36;;;;;;;6.33;1.63;;;3.00;1.00;;;;;;5073375;28;20509;-59
2021/01/13 00:53:02;;;;;;;4.73;2.40;;;3.20;1.00;;;;;;5073398;28;20191;-59
2021/01/13 00:55:29;;;;;;;4.83;1.53;;;3.10;1.00;;;;;;5073328;28;20362;-59
2021/01/13 00:57:54;;;;;;;1.20;1.00;;;3.00;1.00;;;;;;5073440;28;20179;-59
2021/01/13 01:00:20;;;;;;;4.60;1.80;;;2.90;1.00;;;;;;5073534;28;20525;-59
2021/01/13 01:02:46;;;;;;;2.43;0.70;;;2.80;1.00;;;;;;5075337;28;20585;-59
2021/01/13 01:05:12;;;;;;;3.33;0.80;;;2.80;1.00;;;;;;5077430;28;20466;-59
2021/01/13 01:07:41;;;;;;;5.60;1.13;;;2.70;1.00;;;;;;5077690;28;20212;-59
2021/01/13 01:10:17;;;;;;;1.83;0.50;;;2.60;1.00;;;;;;5077892;28;20173;-59
2021/01/13 01:12:42;;;;;;;2.70;1.00;;;2.60;1.00;;;;;;5077635;28;20226;-59
2021/01/13 01:15:08;;;;;;;2.77;0.87;;;2.50;1.00;;;;;;5077343;28;20180;-59
2021/01/13 01:17:33;;;;;;;4.00;1.33;;;2.50;1.00;;;;;;5077437;28;20282;-59
2021/01/13 01:19:59;;;;;;;2.93;0.97;;;2.60;1.00;;;;;;5077533;28;20754;-59
2021/01/13 01:22:25;;;;;;;6.10;0.93;;;2.60;1.00;;;;;;5077374;28;20177;-59
2021/01/13 01:24:50;;;;;;;5.10;0.80;;;2.50;1.00;;;;;;5076922;28;20228;-59
2021/01/13 01:27:16;;;;;;;4.10;1.23;;;2.60;1.00;;;;;;5077068;28;20195;-59
2021/01/13 01:29:41;;;;;;;1.83;0.83;;;2.60;99.90;;;;;;5076998;28;20198;-59
2021/01/13 01:32:07;;;;;;;2.60;0.93;;;2.60;99.90;;;;;;5076927;28;20181;-59
2021/01/13 01:34:32;;;;;;;1.53;0.60;;;2.60;99.90;;;;;;5076781;28;20184;-59
2021/01/13 01:36:58;;;;;;;2.40;0.60;;;2.60;99.90;;;;;;5076895;28;20518;-59
2021/01/13 01:39:23;;;;;;;7.07;1.20;;;2.60;99.90;;;;;;5076692;28;20621;-59
2021/01/13 01:41:49;;;;;;;1.33;0.60;;;2.60;99.90;;;;;;5076691;28;20510;-59
2021/01/13 01:44:15;;;;;;;3.97;1.23;;;2.60;99.90;;;;;;5076514;28;20258;-59
2021/01/13 01:46:44;;;;;;;0.90;0.43;;;2.70;99.90;;;;;;5076866;28;20284;-59
2021/01/13 01:49:13;;;;;;;1.48;0.50;;;2.70;60.90;;;;;;5076666;28;20234;-59
2021/01/13 01:51:53;;;;;;;2.47;0.77;;;2.70;12.80;;;;;;5076662;28;20255;-59
2021/01/13 01:54:24;;;;;;;2.58;0.50;;;2.70;1.00;;;;;;5076353;28;20173;-59
2021/01/13 01:56:55;;;;;;;4.07;0.80;;;2.70;1.00;;;;;;5076483;28;20199;-59
2021/01/13 01:59:34;;;;;;;3.00;0.52;;;2.70;40.00;;;;;;5076374;28;20181;-59
2021/01/13 02:02:02;;;;;;;4.40;0.90;;;2.70;99.90;;;;;;5076492;28;20184;-59
2021/01/13 02:04:32;;;;;;;1.58;0.50;;;2.70;99.90;;;;;;5076046;28;20285;-59
2021/01/13 02:06:57;;;;;;;3.42;0.80;;;2.70;99.90;;;;;;5076294;28;20168;-59
2021/01/13 02:09:23;;;;;;;3.70;1.23;;;2.70;99.90;;;;;;5076264;28;20188;-59
2021/01/13 02:11:53;;;;;;;7.30;1.10;;;2.60;99.90;;;;;;5076167;28;20191;-59
2021/01/13 02:14:20;;;;;;;1.60;0.70;;;2.60;99.90;;;;;;5075862;28;20200;-59
2021/01/13 02:16:56;;;;;;;4.70;1.40;;;2.60;1.00;;;;;;5075841;28;20173;-59
2021/01/13 02:19:47;;;;;;;1.55;0.60;;;2.50;1.00;;;;;;5075944;28;20271;-59
2021/01/13 02:22:21;;;;;;;4.32;0.90;;;2.50;1.00;;;;;;5075850;28;20188;-59
2021/01/13 02:25:13;;;;;;;2.08;0.98;;;2.40;1.00;;;;;;5075546;28;20195;-59
2021/01/13 02:28:07;;;;;;;9.25;1.20;;;2.50;1.00;;;;;;5075819;28;20226;-59
2021/01/13 02:31:03;;;;;;;7.60;1.25;;;2.50;1.00;;;;;;5075684;28;20616;-59
2021/01/13 02:33:52;;;;;;;2.95;1.23;;;2.60;1.00;;;;;;5075398;28;20300;-59
2021/01/13 02:36:33;;;;;;;4.53;0.90;;;2.60;1.00;;;;;;5075618;28;20172;-59
2021/01/13 02:39:00;;;;;;;5.10;0.90;;;2.60;1.00;;;;;;5075393;28;20181;-59
2021/01/13 02:41:31;;;;;;;1.67;1.30;;;2.60;1.00;;;;;;5075646;28;20177;-59
2021/01/13 02:44:06;;;;;;;12.02;1.45;;;2.80;1.00;;;;;;5075176;28;20266;-59
2021/01/13 02:46:53;;;;;;;3.35;1.80;;;2.80;1.00;;;;;;5075773;28;20662;-59
2021/01/13 02:49:51;;;;;;;6.97;1.08;;;2.90;1.00;;;;;;5075381;28;20667;-59
2021/01/13 02:52:19;;;;;;;4.32;1.75;;;2.90;99.90;;;;;;5052568;28;20192;-59
2021/01/13 02:54:55;;;;;;;2.10;0.90;;;3.00;99.90;;;;;;5075123;28;20208;-59
2021/01/13 02:57:28;;;;;;;5.30;0.77;;;3.00;99.90;;;;;;5075268;28;20208;-59
2021/01/13 02:59:58;;;;;;;6.93;1.10;;;3.00;99.90;;;;;;5075168;28;20211;-59
2021/01/13 03:02:38;;;;;;;2.35;0.75;;;3.10;99.90;;;;;;5075268;28;20270;-59
2021/01/13 03:05:05;;;;;;;3.22;1.25;;;3.00;99.90;;;;;;5074839;28;20214;-59
2021/01/13 03:07:36;;;;;;;5.22;1.08;;;2.80;1.00;;;;;;5074098;28;20169;-59
2021/01/13 03:10:10;;;;;;;2.92;0.88;;;2.80;1.00;;;;;;5075034;28;20172;-59
2021/01/13 03:12:40;;;;;;;3.90;1.13;;;3.00;1.00;;;;;;5075102;28;20271;-59
2021/01/13 03:15:07;;;;;;;4.80;1.15;;;3.10;1.00;;;;;;5074927;28;20184;-59
2021/01/13 03:17:33;;;;;;;10.57;1.73;;;3.00;1.00;;;;;;5075086;28;20180;-59
2021/01/13 03:20:27;;;;;;;7.20;1.30;;;2.90;1.00;;;;;;5075008;28;20191;-59
2021/01/13 03:23:30;;;;;;;9.85;1.60;;;2.70;1.00;;;;;;5074842;28;20181;-59
2021/01/13 03:26:01;;;;;;;9.25;1.20;;;2.60;1.00;;;;;;5074055;28;20199;-59
2021/01/13 03:28:31;;;;;;;3.78;1.25;;;2.60;1.00;;;;;;5073520;28;20188;-59
2021/01/13 03:30:58;;;;;;;11.32;1.63;;;2.50;1.00;;;;;;5074615;28;20180;-59
2021/01/13 03:33:24;;;;;;;2.70;0.60;;;2.60;1.00;;;;;;5074293;28;20177;-59
2021/01/13 03:36:03;;;;;;;2.40;0.97;;;2.60;1.00;;;;;;5074492;28;20243;-57
2021/01/13 03:38:30;;;;;;;2.13;0.82;;;2.60;1.00;;;;;;5074507;28;20616;-57
2021/01/13 03:41:04;;;;;;;6.43;1.75;;;2.50;1.00;;;;;;5074571;28;20188;-58
2021/01/13 03:43:38;;;;;;;6.65;1.48;;;2.60;1.00;;;;;;5074181;28;20167;-58
2021/01/13 03:46:08;;;;;;;6.22;1.60;;;2.70;1.00;;;;;;5074358;28;20168;-58
2021/01/13 03:48:46;;;;;;;7.00;1.77;;;2.70;1.00;;;;;;5074431;28;20204;-58
2021/01/13 03:51:53;;;;;;;5.28;1.77;;;2.70;1.00;;;;;;5074468;28;20656;-58
2021/01/13 03:54:23;;;;;;;1.40;0.82;;;2.80;1.00;;;;;;5072719;28;20196;-58
2021/01/13 03:57:00;;;;;;;3.92;1.23;;;2.80;1.00;;;;;;5074503;28;20193;-58
2021/01/13 03:59:55;;;;;;;3.13;0.95;;;2.90;1.00;;;;;;5074425;28;20180;-58
2021/01/13 04:02:27;;;;;;;1.45;1.00;;;2.80;1.00;;;;;;5075044;28;20523;-58
2021/01/13 04:05:16;;;;;;;1.75;0.95;;;2.80;1.00;;;;;;5073739;28;20208;-58
2021/01/13 04:07:43;;;;;;;3.08;0.80;;;2.70;1.00;;;;;;5074051;28;20173;-58
2021/01/13 04:10:14;;;;;;;4.15;1.50;;;2.60;1.00;;;;;;5074146;28;20177;-58
2021/01/13 04:13:01;;;;;;;3.72;0.98;;;2.70;1.00;;;;;;5074117;28;20194;-62
2021/01/13 04:15:38;;;;;;;5.63;1.00;;;2.90;1.00;;;;;;5073800;28;20621;-62
2021/01/13 04:18:06;;;;;;;5.10;1.05;;;3.10;1.00;;;;;;5074028;28;20191;-62
2021/01/13 04:20:33;;;;;;;3.05;0.90;;;3.00;1.00;;;;;;5073832;28;20172;-62
2021/01/13 04:22:59;;;;;;;4.40;1.30;;;2.80;1.00;;;;;;5073820;28;20259;-62
2021/01/13 04:25:33;;;;;;;3.70;1.10;;;2.80;1.00;;;;;;5073767;28;20311;-62
2021/01/13 04:28:00;;;;;;;1.67;0.90;;;2.60;1.00;;;;;;5073772;28;20418;-60
2021/01/13 04:30:26;;;;;;;2.47;1.10;;;2.40;1.00;;;;;;5073836;28;20204;-60
2021/01/13 04:32:56;;;;;;;3.17;0.95;;;2.40;1.00;;;;;;5073684;28;20177;-63
2021/01/13 04:35:25;;;;;;;6.30;1.27;;;2.40;1.00;;;;;;5073079;28;20561;-63
2021/01/13 04:37:53;;;;;;;3.10;1.30;;;2.40;1.00;;;;;;5073478;28;20180;-60
2021/01/13 04:40:39;;;;;;;7.72;1.17;;;2.40;1.00;;;;;;5073495;28;20248;-60
2021/01/13 04:43:06;;;;;;;2.15;0.88;;;2.40;1.00;;;;;;5073449;28;20318;-62
2021/01/13 04:45:45;;;;;;;5.22;1.10;;;2.50;4.20;;;;;;5073518;28;20223;-60
2021/01/13 04:48:15;;;;;;;4.32;1.25;;;2.60;12.60;;;;;;5073476;28;20187;-60
2021/01/13 04:50:47;;;;;;;4.28;2.08;;;2.70;14.80;;;;;;5073357;28;20173;-60
2021/01/13 04:53:21;;;;;;;6.95;2.30;;;2.70;7.70;;;;;;5073268;28;20176;-60
2021/01/13 04:55:55;;;;;;;3.90;1.05;;;2.70;4.70;;;;;;5073350;28;20177;-60
2021/01/13 04:58:20;;;;;;;4.55;1.55;;;2.70;7.10;;;;;;5072254;28;20179;-60
2021/01/13 05:01:04;;;;;;;8.17;1.70;;;2.80;6.90;;;;;;5072985;28;20240;-60
2021/01/13 05:03:39;;;;;;;3.45;1.55;;;2.70;3.40;;;;;;5071891;28;20593;-60
2021/01/13 05:06:28;;;;;;;11.98;1.63;;;2.70;3.70;;;;;;5073233;28;20215;-60
2021/01/13 05:09:05;;;;;;;2.65;1.25;;;2.50;4.80;;;;;;5073036;28;20576;-60
2021/01/13 05:11:45;;;;;;;4.13;1.50;;;2.40;16.90;;;;;;5073232;28;20172;-60
2021/01/13 05:14:12;;;;;;;3.85;1.25;;;2.30;32.30;;;;;;5071764;28;20184;-60
2021/01/13 05:17:01;;;;;;;3.67;1.70;;;2.30;45.20;;;;;;5073251;28;20176;-60
2021/01/13 05:19:45;;;;;;;3.85;1.85;;;2.30;58.60;;;;;;5073218;28;20165;-60
2021/01/13 05:22:15;;;;;;;7.18;1.95;;;2.30;80.00;;;;;;5073166;28;20267;-60
2021/01/13 05:24:41;;;;;;;4.10;1.77;;;2.30;93.20;;;;;;5072716;28;20224;-60
2021/01/13 05:27:42;;;;;;;3.63;1.40;;;2.30;99.80;;;;;;5073131;28;20255;-60
2021/01/13 05:30:11;;;;;;;4.22;1.20;;;2.30;99.90;;;;;;5051792;28;20231;-60
2021/01/13 05:32:41;;;;;;;2.55;1.52;;;2.40;99.90;;;;;;5072822;28;20212;-60
2021/01/13 05:35:08;;;;;;;3.47;1.33;;;2.40;99.90;;;;;;5072588;28;20208;-60
2021/01/13 05:37:49;;;;;;;3.55;1.40;;;2.40;99.90;;;;;;5072890;28;20192;-60
2021/01/13 05:40:16;;;;;;;1.58;1.20;;;2.40;99.90;;;;;;5072941;28;20180;-60
2021/01/13 05:42:43;;;;;;;2.83;1.33;;;2.50;99.90;;;;;;5072983;28;20184;-60
2021/01/13 05:45:10;;;;;;;2.95;1.40;;;2.50;99.90;;;;;;5072440;28;20203;-60
2021/01/13 05:47:56;;;;;;;2.78;1.75;;;2.40;99.90;;;;;;5072571;28;20279;-60
2021/01/13 05:50:25;;;;;;;8.55;1.40;;;2.50;99.90;;;;;;5076417;28;20169;-60
2021/01/13 05:52:52;;;;;;;4.20;1.45;;;2.50;99.90;;;;;;5076468;28;20546;-60
2021/01/13 05:55:19;;;;;;;2.55;1.23;;;2.40;99.90;;;;;;5076020;28;20253;-60
2021/01/13 05:58:02;;;;;;;2.70;1.55;;;2.40;99.90;;;;;;5076132;28;20661;-60
2021/01/13 06:00:29;;;;;;;3.38;1.40;;;2.30;99.90;;;;;;5075291;28;20201;-60
2021/01/13 06:02:56;;;;;;;4.53;1.98;;;2.30;99.90;;;;;;5076065;28;20181;-60
2021/01/13 06:05:23;;;;;;;7.03;1.85;;;2.30;99.90;;;;;;5076046;28;20223;-60
2021/01/13 06:07:51;;;;;;;3.75;1.33;;;2.20;99.90;;;;;;5076101;28;20177;-60
2021/01/13 06:10:18;;;;;;;5.97;1.65;;;2.20;99.90;;;;;;5075931;28;20215;-60
2021/01/13 06:12:48;;;;;;;1.13;0.82;;;2.10;99.90;;;;;;5076008;28;20485;-60
2021/01/13 06:15:14;;;;;;;1.80;1.40;;;2.10;99.90;;;;;;5075924;28;20610;-60
2021/01/13 06:17:50;;;;;;;3.80;1.55;;;2.10;99.90;;;;;;5076003;28;20255;-60
2021/01/13 06:20:24;;;;;;;1.98;1.10;;;2.10;99.90;;;;;;5075992;28;20168;-60
2021/01/13 06:22:51;;;;;;;7.15;1.38;;;2.10;99.90;;;;;;5075876;28;20181;-59
2021/01/13 06:25:21;;;;;;;2.05;1.30;;;2.20;99.90;;;;;;5074082;28;20512;-59
2021/01/13 06:28:09;;;;;;;3.28;1.20;;;2.20;99.90;;;;;;5074356;28;20469;-60
2021/01/13 06:30:42;;;;;;;1.35;0.95;;;2.20;99.90;;;;;;5074652;28;20226;-59
2021/01/13 06:33:10;;;;;;;8.52;2.33;;;2.30;99.90;;;;;;5074425;28;20248;-59
2021/01/13 06:35:41;;;;;;;4.95;1.40;;;2.40;99.90;;;;;;5075095;28;20641;-59
2021/01/13 06:38:41;;;;;;;5.13;1.02;;;2.40;99.90;;;;;;5076038;28;20181;-58
2021/01/13 06:41:07;;;;;;;4.85;1.75;;;2.50;99.90;;;;;;5067434;28;20216;-60
2021/01/13 06:43:34;;;;;;;2.77;1.37;;;2.40;99.90;;;;;;5075512;28;20282;-58
2021/01/13 06:45:59;;;;;;;3.28;1.35;;;2.50;99.90;;;;;;5076123;28;20425;-59
2021/01/13 06:48:29;;;;;;;1.80;0.97;;;2.40;99.90;;;;;;5076115;28;20173;-58
2021/01/13 06:51:00;;;;;;;1.90;1.13;;;2.40;99.90;;;;;;5075957;28;20203;-58
2021/01/13 06:53:36;;;;;;;3.92;1.40;;;2.40;99.90;;;;;;5075845;28;20204;-57
2021/01/13 06:56:13;;;;;;;1.23;1.13;;;2.40;99.90;;;;;;5075886;28;20196;-58
2021/01/13 06:58:39;;;;;;;3.13;1.58;;;2.40;99.90;;;;;;5075384;28;20244;-59
2021/01/13 07:01:06;;;;;;;1.60;1.45;;;2.40;99.90;;;;;;5074212;28;20196;-59
2021/01/13 07:03:32;;;;;;;2.67;1.50;;;2.30;99.90;;;;;;5075093;28;20189;-59
2021/01/13 07:06:10;;;;;;;5.68;1.75;;;2.30;99.90;;;;;;5075130;28;20173;-59
2021/01/13 07:08:37;;;;;;;6.47;2.00;;;2.30;99.90;;;;;;5075588;28;20572;-59
2021/01/13 07:11:05;;;;;;;1.20;0.90;;;2.30;99.90;;;;;;5075427;28;20259;-58
2021/01/13 07:13:34;;;;;;;6.72;2.20;;;2.30;99.90;;;;;;5075310;28;20177;-58
2021/01/13 07:16:04;;;;;;;4.35;2.03;;;2.30;99.90;;;;;;5075258;28;20500;-58
2021/01/13 07:18:31;;;;;;;2.50;1.55;;;2.30;99.90;;;;;;5075349;28;20172;-58
2021/01/13 07:21:05;;;;;;;3.15;1.83;;;2.30;99.90;;;;;;5075159;28;20191;-58
2021/01/13 07:23:32;;;;;;;5.72;1.80;;;2.40;99.90;;;;;;5074868;28;20177;-58
2021/01/13 07:25:59;;;;;;;3.67;1.48;;;2.40;99.90;;;;;;5075508;28;20177;-60
2021/01/13 07:28:25;;;;;;;4.93;1.95;;;2.40;99.90;;;;;;5074580;28;20188;-59
2021/01/13 07:30:53;;;;;;;6.80;1.70;;;2.50;99.90;;;;;;5074957;28;20264;-59
2021/01/13 07:33:20;;;;;;;3.80;2.30;;;2.60;99.90;;;;;;5074768;28;20188;-57
2021/01/13 07:35:47;;;;;;;9.25;2.10;;;2.60;99.90;;;;;;5074884;28;20314;-58
2021/01/13 07:38:15;;;;;;;4.72;1.60;;;2.70;99.90;;;;;;5074755;28;20180;-58
2021/01/13 07:41:07;;;;;;;1.50;1.38;;;2.80;99.90;;;;;;5075010;28;20181;-58
2021/01/13 07:44:14;;;;;;;1.85;1.00;;;2.90;99.90;;;;;;5075046;28;20496;-59
2021/01/13 07:46:59;;;;;;;5.30;1.40;;;2.80;99.90;;;;;;5074456;28;20187;-62
2021/01/13 07:49:47;;;;;;;3.80;1.23;;;2.90;99.90;;;;;;5074459;28;20234;-62
2021/01/13 07:52:17;;;;;;;2.03;1.00;;;3.00;99.90;;;;;;5069788;28;20207;-58
2021/01/13 07:54:47;;;;;;;2.17;1.30;;;3.00;99.90;;;;;;5065280;28;20542;-58
2021/01/13 07:57:22;;;;;;;2.83;0.88;;;2.90;99.90;;;;;;5072764;28;20196;-59
2021/01/13 08:00:06;;;;;;;3.90;1.20;;;2.80;99.90;;;;;;5074414;28;20204;-59
2021/01/13 08:02:51;;;;;;;3.10;1.58;;;2.80;99.90;;;;;;5054399;28;20473;-59
2021/01/13 08:05:16;;;;;;;3.90;1.27;;;2.80;99.40;;;;;;5054234;28;20219;-59
2021/01/13 08:07:43;;;;;;;3.17;0.60;;;2.80;93.90;;;;;;5071034;28;20185;-59
2021/01/13 08:10:10;;;;;;;2.60;0.80;;;2.70;92.90;;;;;;5074252;28;20204;-58
2021/01/13 08:13:23;;;;;;;1.55;1.08;;;2.60;93.60;;;;;;5074043;28;20255;-58
2021/01/13 08:16:36;;;;;;;1.33;0.70;;;2.70;97.40;;;;;;5074084;28;20198;-58
2021/01/13 08:19:40;;;;;;;13.00;1.60;;;2.60;99.90;;;;;;5054995;28;20720;-60
2021/01/13 08:22:12;;;;;;;3.25;1.33;;;2.70;99.90;;;;;;5072712;28;20188;-62
2021/01/13 08:24:43;;;;;;;5.18;1.02;;;2.60;99.90;;;;;;5072880;28;20649;-60
2021/01/13 08:27:09;;;;;;;1.33;1.10;;;2.60;99.90;;;;;;5073795;28;20184;-62
2021/01/13 08:29:40;;;;;;;2.60;1.13;;;2.60;99.90;;;;;;5074325;28;20605;-61
2021/01/13 08:32:11;;;;;;;1.15;1.00;;;2.60;99.90;;;;;;5074251;28;20248;-61
2021/01/13 08:34:45;;;;;;;2.13;1.33;;;2.60;99.90;;;;;;5073769;28;20176;-62
2021/01/13 08:37:12;;;;;;;6.28;1.30;;;2.60;99.90;;;;;;5054123;28;20183;-63
2021/01/13 08:39:38;;;;;;;4.45;1.63;;;2.70;99.90;;;;;;5053865;28;20264;-61
2021/01/13 08:42:21;;;;;;;3.25;1.40;;;2.70;99.90;;;;;;5053932;28;20580;-60
2021/01/13 08:44:47;;;;;;;5.18;1.55;;;2.80;99.90;;;;;;5053271;28;20209;-60
2021/01/13 08:47:13;;;;;;;4.10;1.15;;;3.00;99.90;;;;;;5066135;28;20184;-60
2021/01/13 08:49:39;;;;;;;1.33;0.73;;;3.00;99.90;;;;;;5073717;28;20505;-60
2021/01/13 08:52:16;;;;;;;6.77;1.77;;;3.00;99.90;;;;;;5074041;28;20184;-59
2021/01/13 08:54:49;;;;;;;6.10;1.75;;;3.10;92.40;;;;;;5073390;28;20435;-60
2021/01/13 08:57:16;;;;;;;4.25;1.83;;;3.00;56.00;;;;;;5073771;28;20482;-59
2021/01/13 08:59:43;;;;;;;1.02;0.70;;;3.00;22.20;;;;;;5073486;28;20185;-59
2021/01/13 09:02:17;;;;;;;7.15;1.52;;;2.90;9.30;;;;;;5073792;28;20191;-58
2021/01/13 09:04:51;;;;;;;2.42;0.77;;;2.90;12.50;;;;;;5073932;28;20201;-61
2021/01/13 09:07:25;;;;;;;7.93;1.52;;;2.90;17.60;;;;;;5073857;28;20175;-62
2021/01/13 09:10:07;;;;;;;7.70;1.63;;;3.00;18.70;;;;;;5073090;28;20184;-59
2021/01/13 09:12:37;;;;;;;5.22;2.42;;;3.10;27.90;;;;;;5073844;28;20261;-60
2021/01/13 09:15:09;;;;;;;3.25;1.23;;;3.30;21.60;;;;;;5072229;28;20184;-60
2021/01/13 09:17:58;;;;;;;5.53;1.30;;;3.40;1.00;;;;;;5073939;28;20195;-62
2021/01/13 09:20:33;;;;;;;9.55;3.63;;;3.50;1.00;;;;;;5073043;28;20524;-60
2021/01/13 09:23:04;;;;;;;6.25;1.55;;;3.50;1.00;;;;;;5073947;28;20188;-60
2021/01/13 09:25:32;;;;;;;4.47;1.35;;;3.40;1.00;;;;;;5077330;28;20200;-59
2021/01/13 09:28:02;;;;;;;1.90;1.52;;;3.30;1.00;;;;;;5076959;28;20228;-61
2021/01/13 09:30:41;;;;;;;5.57;1.65;;;3.30;1.00;;;;;;5077191;28;20597;-61
2021/01/13 09:33:12;;;;;;;5.82;2.42;;;3.30;1.00;;;;;;5077168;28;20187;-61
2021/01/13 09:35:39;;;;;;;3.58;1.73;;;3.30;1.00;;;;;;5077633;28;20180;-58
2021/01/13 09:38:27;;;;;;;1.65;1.20;;;3.30;1.00;;;;;;5077181;28;20196;-59
2021/01/13 09:40:52;;;;;;;4.85;1.70;;;3.40;1.00;;;;;;5077412;28;20185;-59
2021/01/13 09:43:35;;;;;;;2.37;1.60;;;3.30;1.00;;;;;;5074439;28;20250;-60
2021/01/13 09:46:06;;;;;;;6.57;1.50;;;3.30;1.00;;;;;;5057106;28;20243;-58
2021/01/13 09:48:34;;;;;;;4.60;1.50;;;3.40;1.00;;;;;;5057122;28;20184;-58
2021/01/13 09:51:06;;;;;;;6.70;2.22;;;3.50;1.00;;;;;;5057015;28;20484;-57
2021/01/13 09:53:34;;;;;;;2.92;1.63;;;3.50;1.00;;;;;;5060571;28;20177;-58
2021/01/13 09:56:08;;;;;;;7.53;3.25;;;3.50;1.00;;;;;;5076910;28;20188;-59
2021/01/13 09:58:39;;;;;;;3.65;1.90;;;3.50;1.00;;;;;;5076925;28;20233;-59
2021/01/13 10:01:23;;;;;;;3.22;1.88;;;3.50;1.00;;;;;;5074555;28;20200;-59
2021/01/13 10:03:51;;;;;;;6.93;2.03;;;3.60;1.00;;;;;;5076754;28;20204;-59
2021/01/13 10:06:29;;;;;;;6.85;1.83;;;3.60;1.00;;;;;;5076885;28;20242;-60
2021/01/13 10:08:57;;;;;;;4.13;2.22;;;3.60;1.00;;;;;;5076921;28;20176;-59
2021/01/13 10:11:26;;;;;;;7.72;2.15;;;3.60;1.00;;;;;;5076347;28;20192;-59
2021/01/13 10:14:03;;;;;;;7.63;2.08;;;3.60;1.00;;;;;;5076568;28;20181;-60
2021/01/13 10:16:29;;;;;;;7.80;1.88;;;3.60;1.00;;;;;;5076510;28;20271;-60
2021/01/13 10:18:59;;;;;;;4.55;1.13;;;3.70;1.00;;;;;;5076676;28;20173;-59
2021/01/13 10:21:38;;;;;;;11.88;2.22;;;3.80;1.00;;;;;;5076675;28;20212;-61
2021/01/13 10:24:06;;;;;;;4.50;1.70;;;3.90;1.00;;;;;;5076378;28;20214;-58
2021/01/13 10:26:38;;;;;;;7.20;2.50;;;3.90;1.00;;;;;;5076539;28;20173;-61
2021/01/13 10:29:04;;;;;;;8.77;2.10;;;4.10;1.00;;;;;;5075580;28;20510;-60
2021/01/13 10:31:32;;;;;;;8.77;2.33;;;4.30;1.00;;;;;;5065093;28;20213;-59
2021/01/13 10:33:58;;;;;;;10.18;2.35;;;4.40;1.00;;;;;;5074487;28;20180;-60
2021/01/13 10:36:32;;;;;;;7.93;1.55;;;4.20;1.00;;;;;;5057550;28;20177;-60
2021/01/13 10:39:10;;;;;;;3.53;1.85;;;4.20;1.00;;;;;;5055480;28;20265;-63
2021/01/13 10:41:43;;;;;;;9.70;1.70;;;4.40;1.00;;;;;;5055448;28;20585;-65
2021/01/13 10:44:20;;;;;;;5.18;1.52;;;4.50;1.00;;;;;;5054919;28;20226;-64
2021/01/13 10:46:53;;;;;;;5.50;2.00;;;4.70;1.00;;;;;;5054492;28;20216;-62
2021/01/13 10:49:22;;;;;;;6.28;1.75;;;4.60;99.90;;;;;;5055328;28;20235;-62
2021/01/13 10:51:53;;;;;;;8.23;1.85;;;4.60;1.00;;;;;;5055320;28;20183;-63
2021/01/13 10:54:22;;;;;;;3.97;1.10;;;4.60;1.00;;;;;;5055028;28;20220;-59
2021/01/13 10:56:53;;;;;;;9.10;1.15;;;4.60;1.00;;;;;;5054964;28;20370;-60
2021/01/13 10:59:19;;;;;;;5.15;1.50;;;4.60;1.00;;;;;;5054810;28;20693;-61
2021/01/13 11:01:47;;;;;;;4.00;1.20;;;4.60;1.00;;;;;;5071062;28;20293;-60
2021/01/13 11:04:24;;;;;;;6.93;1.88;;;4.70;1.00;;;;;;5074640;28;20200;-64
2021/01/13 11:07:07;;;;;;;2.03;1.38;;;4.80;1.00;;;;;;5074059;28;20177;-62
2021/01/13 11:09:38;;;;;;;4.55;1.50;;;5.00;99.90;;;;;;5071787;28;20180;-62
2021/01/13 11:12:05;;;;;;;7.03;1.58;;;5.10;99.90;;;;;;5074902;28;20181;-60
2021/01/13 11:14:34;;;;;;;8.00;0.80;;;5.30;99.90;;;;;;5074692;28;20267;-61
2021/01/13 11:17:05;;;;;;;6.65;2.45;;;5.20;99.90;;;;;;5074946;28;20185;-61
2021/01/13 11:19:32;;;;;;;5.20;1.13;;;5.00;99.90;;;;;;5074988;28;20172;-61
2021/01/13 11:21:58;;;;;;;5.63;1.45;;;4.90;99.90;;;;;;5074786;28;20215;-60
2021/01/13 11:24:32;;;;;;;3.63;1.30;;;4.90;99.90;;;;;;5074616;28;20200;-61
2021/01/13 11:26:59;;;;;;;2.42;0.95;;;5.10;99.90;;;;;;5075156;28;20230;-61
2021/01/13 11:29:28;;;;;;;4.90;1.52;;;5.00;99.90;;;;;;5074927;28;20180;-61
2021/01/13 11:31:54;;;;;;;6.43;1.20;;;5.00;99.90;;;;;;5074708;28;20169;-61
2021/01/13 11:34:24;;;;;;;5.10;1.30;;;5.20;99.90;;;;;;5074331;28;20296;-58
2021/01/13 11:37:10;;;;;;;6.07;1.33;;;5.20;99.90;;;;;;5074664;28;20437;-61
2021/01/13 11:39:48;;;;;;;7.13;1.10;;;5.20;99.90;;;;;;5074420;28;20212;-60
2021/01/13 11:42:35;;;;;;;8.38;1.52;;;5.20;99.90;;;;;;5074670;28;20169;-58
2021/01/13 11:45:15;;;;;;;1.42;1.00;;;5.20;99.90;;;;;;5074109;28;20200;-58
2021/01/13 11:47:48;;;;;;;4.95;1.17;;;5.20;99.90;;;;;;5073827;28;20564;-60
2021/01/13 11:50:22;;;;;;;4.78;1.13;;;5.20;99.90;;;;;;5074522;28;20161;-60
2021/01/13 11:53:02;;;;;;;4.72;1.30;;;5.20;33.40;;;;;;5074581;28;20184;-59
2021/01/13 11:55:31;;;;;;;6.55;2.40;;;5.30;27.50;;;;;;5074216;28;20212;-59
2021/01/13 11:57:57;;;;;;;7.82;2.75;;;5.60;1.00;;;;;;5074016;28;20234;-62
2021/01/13 12:00:27;;;;;;;11.90;3.45;;;5.70;1.00;;;;;;5069258;28;20204;-61
2021/01/13 12:03:02;;;;;;;5.78;3.28;;;5.70;99.90;;;;;;5054371;28;20512;-59
2021/01/13 12:05:30;;;;;;;7.55;1.60;;;5.70;99.90;;;;;;5053974;28;20216;-59
2021/01/13 12:08:17;;;;;;;4.28;1.30;;;5.70;99.90;;;;;;5053892;28;20234;-58
2021/01/13 12:10:49;;;;;;;4.78;1.40;;;5.70;99.90;;;;;;5054212;28;20641;-61
2021/01/13 12:13:30;;;;;;;5.88;1.10;;;5.80;99.90;;;;;;5052559;28;20541;-62
2021/01/13 12:16:01;;;;;;;5.57;3.50;;;5.90;1.00;;;;;;5053786;28;20173;-63
2021/01/13 12:18:35;;;;;;;11.73;2.10;;;6.00;99.90;;;;;;5072190;28;20191;-63
2021/01/13 12:21:23;;;;;;;4.45;1.75;;;5.80;1.00;;;;;;5073738;28;20175;-61
2021/01/13 12:23:53;;;;;;;4.53;1.50;;;5.90;99.90;;;;;;5073523;28;20207;-62
2021/01/13 12:26:30;;;;;;;6.00;2.38;;;5.90;1.00;;;;;;5073682;28;20208;-58
2021/01/13 12:28:58;;;;;;;6.50;1.75;;;5.70;1.00;;;;;;5073869;28;20210;-59
2021/01/13 12:31:35;;;;;;;5.43;1.20;;;5.90;1.00;;;;;;5073904;28;20212;-58
2021/01/13 12:34:00;;;;;;;5.18;1.52;;;5.90;1.00;;;;;;5073346;28;20189;-62
2021/01/13 12:36:36;;;;;;;3.10;1.50;;;5.80;99.90;;;;;;5073682;28;20180;-62
2021/01/13 12:39:02;;;;;;;5.10;1.15;;;5.70;99.90;;;;;;5073438;28;20430;-61
2021/01/13 12:41:33;;;;;;;8.63;1.77;;;5.70;1.00;;;;;;5073735;28;20269;-62
2021/01/13 12:44:07;;;;;;;4.88;1.40;;;5.70;1.00;;;;;;5072643;28;20200;-61
2021/01/13 12:46:54;;;;;;;5.50;1.42;;;5.70;1.00;;;;;;5073835;28;20180;-61
2021/01/13 12:49:20;;;;;;;5.18;1.45;;;5.80;1.00;;;;;;5073539;28;20227;-59
2021/01/13 12:51:53;;;;;;;4.82;1.50;;;5.60;1.00;;;;;;5074504;28;20172;-58
2021/01/13 12:54:19;;;;;;;5.20;1.70;;;5.70;99.90;;;;;;5073324;28;20176;-60
2021/01/13 12:56:45;;;;;;;4.53;1.50;;;5.70;49.90;;;;;;5073611;28;20184;-59
2021/01/13 12:59:10;;;;;;;5.47;2.13;;;5.60;99.90;;;;;;5076451;28;20609;-62
2021/01/13 13:01:40;;;;;;;5.07;1.20;;;5.60;99.90;;;;;;5078074;28;20450;-61
2021/01/13 13:04:06;;;;;;;7.43;1.60;;;5.60;99.90;;;;;;5076927;28;20236;-60
2021/01/13 13:06:34;;;;;;;7.05;1.42;;;5.40;99.90;;;;;;5078199;28;20257;-61
2021/01/13 13:09:01;;;;;;;2.00;1.02;;;5.40;99.90;;;;;;5078872;28;20241;-59
2021/01/13 13:11:28;;;;;;;7.40;1.70;;;5.50;1.00;;;;;;5078930;28;20196;-60
2021/01/13 13:13:54;;;;;;;4.20;1.48;;;5.40;1.00;;;;;;5077616;28;20169;-60
2021/01/13 13:16:20;;;;;;;7.55;1.77;;;5.40;1.00;;;;;;5076431;28;20487;-59
2021/01/13 13:18:48;;;;;;;3.03;1.10;;;5.30;1.00;;;;;;5077512;28;20250;-63
2021/01/13 13:21:15;;;;;;;10.57;2.10;;;5.30;1.00;;;;;;5077902;28;20183;-62
2021/01/13 13:23:41;;;;;;;3.22;1.00;;;5.20;1.00;;;;;;5077557;28;20187;-64
2021/01/13 13:26:08;;;;;;;12.65;3.50;;;5.10;99.90;;;;;;5075996;28;20210;-62
2021/01/13 13:28:35;;;;;;;7.13;1.50;;;5.10;99.90;;;;;;5077146;28;20216;-62
2021/01/13 13:31:01;;;;;;;3.63;1.10;;;5.00;1.00;;;;;;5077067;28;20169;-61